sensor_id;sensor_type;location;lat;lon;timestamp;pressure;altitude;pressure_sealevel;temperature;humidity
83248;BME280;73465;51.038;7.052;2023-12-14T00:00:23;99846.47;;;19.23;55.62
83248;BME280;73465;51.038;7.052;2023-12-14T00:02:48;99851.97;;;19.22;55.40
83248;BME280;73465;51.038;7.052;2023-12-14T00:05:13;99856.47;;;19.21;55.63
83248;BME280;73465;51.038;7.052;2023-12-14T00:07:39;99863.63;;;19.21;55.40
83248;BME280;73465;51.038;7.052;2023-12-14T00:10:04;99872.47;;;19.21;55.67
83248;BME280;73465;51.038;7.052;2023-12-14T00:12:30;99865.16;;;19.23;55.70
83248;BME280;73465;51.038;7.052;2023-12-14T00:14:56;99874.13;;;19.22;55.40
83248;BME280;73465;51.038;7.052;2023-12-14T00:17:22;99882.03;;;19.24;55.27
83248;BME280;73465;51.038;7.052;2023-12-14T00:19:47;99882.03;;;19.24;55.19
83248;BME280;73465;51.038;7.052;2023-12-14T00:22:12;99889.31;;;19.22;55.65
83248;BME280;73465;51.038;7.052;2023-12-14T00:24:37;99887.63;;;19.21;55.81
83248;BME280;73465;51.038;7.052;2023-12-14T00:27:03;99887.09;;;19.17;55.66
83248;BME280;73465;51.038;7.052;2023-12-14T00:29:28;99885.94;;;19.20;55.22
83248;BME280;73465;51.038;7.052;2023-12-14T00:31:54;99891.16;;;19.21;55.28
83248;BME280;73465;51.038;7.052;2023-12-14T00:34:19;99898.31;;;19.21;55.71
83248;BME280;73465;51.038;7.052;2023-12-14T00:36:44;99896.22;;;19.15;55.53
83248;BME280;73465;51.038;7.052;2023-12-14T00:39:10;99898.31;;;19.21;55.67
83248;BME280;73465;51.038;7.052;2023-12-14T00:41:35;99901.13;;;19.19;55.67
83248;BME280;73465;51.038;7.052;2023-12-14T00:44:00;99914.31;;;19.21;56.03
83248;BME280;73465;51.038;7.052;2023-12-14T00:46:25;99920.81;;;19.18;55.81
83248;BME280;73465;51.038;7.052;2023-12-14T00:48:51;99929.19;;;19.23;55.65
83248;BME280;73465;51.038;7.052;2023-12-14T00:51:16;99931.47;;;19.18;55.37
83248;BME280;73465;51.038;7.052;2023-12-14T00:53:42;99939.22;;;19.21;55.55
83248;BME280;73465;51.038;7.052;2023-12-14T00:56:08;99938.50;;;19.19;55.64
83248;BME280;73465;51.038;7.052;2023-12-14T00:58:33;99941.44;;;19.16;56.03
83248;BME280;73465;51.038;7.052;2023-12-14T01:00:59;99952.81;;;19.18;55.92
83248;BME280;73465;51.038;7.052;2023-12-14T01:03:24;99957.19;;;19.19;55.36
83248;BME280;73465;51.038;7.052;2023-12-14T01:05:49;99956.19;;;19.20;55.65
83248;BME280;73465;51.038;7.052;2023-12-14T01:08:14;99965.03;;;19.21;55.19
83248;BME280;73465;51.038;7.052;2023-12-14T01:10:40;99966.16;;;19.18;55.62
83248;BME280;73465;51.038;7.052;2023-12-14T01:13:05;99964.47;;;19.17;55.30
83248;BME280;73465;51.038;7.052;2023-12-14T01:15:30;99970.53;;;19.19;55.74
83248;BME280;73465;51.038;7.052;2023-12-14T01:17:56;99969.97;;;19.16;55.79
83248;BME280;73465;51.038;7.052;2023-12-14T01:20:21;99983.16;;;19.17;55.48
83248;BME280;73465;51.038;7.052;2023-12-14T01:22:46;99981.47;;;19.16;55.48
83248;BME280;73465;51.038;7.052;2023-12-14T01:25:12;99986.81;;;19.16;55.77
83248;BME280;73465;51.038;7.052;2023-12-14T01:27:37;99999.19;;;19.17;55.71
83248;BME280;73465;51.038;7.052;2023-12-14T01:30:02;99999.19;;;19.17;55.45
83248;BME280;73465;51.038;7.052;2023-12-14T01:32:28;99996.81;;;19.14;55.46
83248;BME280;73465;51.038;7.052;2023-12-14T01:34:53;100004.66;;;19.16;55.73
83248;BME280;73465;51.038;7.052;2023-12-14T01:37:19;100005.66;;;19.15;55.43
83248;BME280;73465;51.038;7.052;2023-12-14T01:39:44;100006.34;;;19.17;55.42
83248;BME280;73465;51.038;7.052;2023-12-14T01:42:09;100017.16;;;19.15;55.59
83248;BME280;73465;51.038;7.052;2023-12-14T01:44:37;100014.63;;;19.14;55.43
83248;BME280;73465;51.038;7.052;2023-12-14T01:47:03;100016.47;;;19.13;55.72
83248;BME280;73465;51.038;7.052;2023-12-14T01:49:28;100028.94;;;19.13;55.67
83248;BME280;73465;51.038;7.052;2023-12-14T01:51:53;100030.94;;;19.11;55.28
83248;BME280;73465;51.038;7.052;2023-12-14T01:54:19;100029.97;;;19.12;55.41
83248;BME280;73465;51.038;7.052;2023-12-14T01:56:44;100038.81;;;19.12;55.59
83248;BME280;73465;51.038;7.052;2023-12-14T01:59:11;100037.41;;;19.08;55.76
83248;BME280;73465;51.038;7.052;2023-12-14T02:01:44;100045.13;;;19.11;55.55
83248;BME280;73465;51.038;7.052;2023-12-14T02:04:11;100047.78;;;19.11;55.41
83248;BME280;73465;51.038;7.052;2023-12-14T02:06:36;100053.13;;;19.11;55.58
83248;BME280;73465;51.038;7.052;2023-12-14T02:09:02;100064.09;;;19.08;55.79
83248;BME280;73465;51.038;7.052;2023-12-14T02:11:27;100066.75;;;19.08;55.70
83248;BME280;73465;51.038;7.052;2023-12-14T02:13:53;100063.25;;;19.07;55.61
83248;BME280;73465;51.038;7.052;2023-12-14T02:16:19;100070.13;;;19.10;55.59
83248;BME280;73465;51.038;7.052;2023-12-14T02:18:45;100078.41;;;19.07;55.45
83248;BME280;73465;51.038;7.052;2023-12-14T02:21:10;100078.41;;;19.07;55.52
83248;BME280;73465;51.038;7.052;2023-12-14T02:23:43;100089.09;;;19.07;55.72
83248;BME280;73465;51.038;7.052;2023-12-14T02:26:08;100097.78;;;19.09;55.65
83248;BME280;73465;51.038;7.052;2023-12-14T02:28:33;100095.13;;;19.09;55.84
83248;BME280;73465;51.038;7.052;2023-12-14T02:30:58;100097.09;;;19.07;55.49
83248;BME280;73465;51.038;7.052;2023-12-14T02:33:24;100110.44;;;19.07;55.45
83248;BME280;73465;51.038;7.052;2023-12-14T02:35:49;100112.13;;;19.08;55.67
83248;BME280;73465;51.038;7.052;2023-12-14T02:38:14;100115.78;;;19.07;55.61
83248;BME280;73465;51.038;7.052;2023-12-14T02:40:40;100119.44;;;19.06;55.48
83248;BME280;73465;51.038;7.052;2023-12-14T02:43:05;100128.41;;;19.05;55.80
83248;BME280;73465;51.038;7.052;2023-12-14T02:45:30;100133.75;;;19.05;55.70
83248;BME280;73465;51.038;7.052;2023-12-14T02:47:56;100130.25;;;19.04;55.86
83248;BME280;73465;51.038;7.052;2023-12-14T02:50:21;100133.19;;;19.01;55.59
83248;BME280;73465;51.038;7.052;2023-12-14T02:52:46;100135.00;;;19.01;55.57
83248;BME280;73465;51.038;7.052;2023-12-14T02:55:12;100139.06;;;19.05;55.70
83248;BME280;73465;51.038;7.052;2023-12-14T02:57:37;100147.09;;;19.05;55.71
83248;BME280;73465;51.038;7.052;2023-12-14T03:00:03;100153.13;;;19.07;55.59
83248;BME280;73465;51.038;7.052;2023-12-14T03:02:28;100155.81;;;19.07;55.57
83248;BME280;73465;51.038;7.052;2023-12-14T03:04:53;100156.94;;;19.04;55.69
83248;BME280;73465;51.038;7.052;2023-12-14T03:07:19;100169.41;;;19.04;55.61
83248;BME280;73465;51.038;7.052;2023-12-14T03:09:44;100146.63;;;18.90;55.62
83248;BME280;73465;51.038;7.052;2023-12-14T03:12:10;100169.56;;;19.02;55.72
83248;BME280;73465;51.038;7.052;2023-12-14T03:14:36;100173.06;;;19.03;55.84
83248;BME280;73465;51.038;7.052;2023-12-14T03:17:01;100178.38;;;19.03;55.93
83248;BME280;73465;51.038;7.052;2023-12-14T03:19:27;100163.47;;;18.90;55.84
83248;BME280;73465;51.038;7.052;2023-12-14T03:21:53;100158.00;;;18.82;55.88
83248;BME280;73465;51.038;7.052;2023-12-14T03:24:18;100190.34;;;18.99;55.79
83248;BME280;73465;51.038;7.052;2023-12-14T03:26:43;100196.38;;;19.01;56.22
83248;BME280;73465;51.038;7.052;2023-12-14T03:29:09;100201.84;;;18.99;55.86
83248;BME280;73465;51.038;7.052;2023-12-14T03:31:34;100189.44;;;18.88;55.56
83248;BME280;73465;51.038;7.052;2023-12-14T03:34:00;100198.28;;;18.89;55.84
83248;BME280;73465;51.038;7.052;2023-12-14T03:36:26;100210.13;;;18.96;55.62
83248;BME280;73465;51.038;7.052;2023-12-14T03:38:51;100213.78;;;18.95;55.95
83248;BME280;73465;51.038;7.052;2023-12-14T03:41:17;100198.28;;;18.89;55.64
83248;BME280;73465;51.038;7.052;2023-12-14T03:43:42;100194.88;;;18.77;56.00
83248;BME280;73465;51.038;7.052;2023-12-14T03:46:08;100221.72;;;18.85;55.69
83248;BME280;73465;51.038;7.052;2023-12-14T03:48:33;100230.63;;;18.96;55.98
83248;BME280;73465;51.038;7.052;2023-12-14T03:51:02;100234.28;;;18.95;55.75
83248;BME280;73465;51.038;7.052;2023-12-14T03:53:28;100237.22;;;18.91;56.04
83248;BME280;73465;51.038;7.052;2023-12-14T03:55:54;100239.06;;;18.91;55.85
83248;BME280;73465;51.038;7.052;2023-12-14T03:58:19;100242.56;;;18.91;55.96
83248;BME280;73465;51.038;7.052;2023-12-14T04:00:45;100258.66;;;18.90;55.95
83248;BME280;73465;51.038;7.052;2023-12-14T04:03:10;100242.34;;;18.83;55.96
83248;BME280;73465;51.038;7.052;2023-12-14T04:05:35;100264.75;;;18.92;55.51
83248;BME280;73465;51.038;7.052;2023-12-14T04:08:01;100273.31;;;18.96;55.67
83248;BME280;73465;51.038;7.052;2023-12-14T04:10:26;100283.28;;;18.94;55.78
83248;BME280;73465;51.038;7.052;2023-12-14T04:12:51;100276.97;;;18.95;56.18
83248;BME280;73465;51.038;7.052;2023-12-14T04:15:17;100283.44;;;18.92;55.66
83248;BME280;73465;51.038;7.052;2023-12-14T04:17:42;100276.03;;;18.84;55.93
83248;BME280;73465;51.038;7.052;2023-12-14T04:20:08;100291.97;;;18.96;55.91
83248;BME280;73465;51.038;7.052;2023-12-14T04:22:33;100277.75;;;18.85;55.78
83248;BME280;73465;51.038;7.052;2023-12-14T04:24:59;100298.31;;;18.95;56.04
83248;BME280;73465;51.038;7.052;2023-12-14T04:27:24;100295.38;;;18.98;55.78
83248;BME280;73465;51.038;7.052;2023-12-14T04:29:53;100281.19;;;18.76;56.08
83248;BME280;73465;51.038;7.052;2023-12-14T04:32:18;100316.84;;;18.96;55.58
83248;BME280;73465;51.038;7.052;2023-12-14T04:34:44;100315.16;;;18.95;55.61
83248;BME280;73465;51.038;7.052;2023-12-14T04:37:09;100306.13;;;18.86;55.83
83248;BME280;73465;51.038;7.052;2023-12-14T04:39:35;100318.56;;;18.97;55.73
83248;BME280;73465;51.038;7.052;2023-12-14T04:42:00;100323.03;;;18.97;55.82
83248;BME280;73465;51.038;7.052;2023-12-14T04:44:25;100325.84;;;18.95;55.70
83248;BME280;73465;51.038;7.052;2023-12-14T04:46:51;100333.13;;;18.93;55.71
83248;BME280;73465;51.038;7.052;2023-12-14T04:49:16;100313.69;;;18.81;55.88
83248;BME280;73465;51.038;7.052;2023-12-14T04:51:42;100338.22;;;18.96;55.73
83248;BME280;73465;51.038;7.052;2023-12-14T04:54:08;100336.25;;;18.98;55.41
83248;BME280;73465;51.038;7.052;2023-12-14T04:56:33;100336.28;;;18.87;55.89
83248;BME280;73465;51.038;7.052;2023-12-14T04:58:58;100327.84;;;18.82;55.89
83248;BME280;73465;51.038;7.052;2023-12-14T05:01:24;100356.44;;;18.91;55.69
83248;BME280;73465;51.038;7.052;2023-12-14T05:03:52;100367.69;;;18.95;55.58
83248;BME280;73465;51.038;7.052;2023-12-14T05:06:17;100366.22;;;18.90;55.72
83248;BME280;73465;51.038;7.052;2023-12-14T05:08:42;100358.16;;;18.81;55.87
83248;BME280;73465;51.038;7.052;2023-12-14T05:11:07;100365.06;;;18.83;55.73
83248;BME280;73465;51.038;7.052;2023-12-14T05:13:33;100372.53;;;18.89;56.01
83248;BME280;73465;51.038;7.052;2023-12-14T05:15:58;100377.78;;;18.91;55.66
83248;BME280;73465;51.038;7.052;2023-12-14T05:18:24;100388.69;;;18.88;55.94
83248;BME280;73465;51.038;7.052;2023-12-14T05:20:50;100385.88;;;18.89;55.89
83248;BME280;73465;51.038;7.052;2023-12-14T05:23:15;100360.78;;;18.71;55.99
83248;BME280;73465;51.038;7.052;2023-12-14T05:25:41;100396.97;;;18.85;55.96
83248;BME280;73465;51.038;7.052;2023-12-14T05:28:06;100402.75;;;18.90;55.92
83248;BME280;73465;51.038;7.052;2023-12-14T05:30:31;100414.53;;;18.87;55.67
83248;BME280;73465;51.038;7.052;2023-12-14T05:32:57;100407.97;;;18.91;55.49
83248;BME280;73465;51.038;7.052;2023-12-14T05:35:22;100402.09;;;18.76;56.23
83248;BME280;73465;51.038;7.052;2023-12-14T05:37:48;100410.63;;;18.91;55.53
83248;BME280;73465;51.038;7.052;2023-12-14T05:40:13;100415.50;;;18.86;55.91
83248;BME280;73465;51.038;7.052;2023-12-14T05:42:38;100425.88;;;18.89;56.01
83248;BME280;73465;51.038;7.052;2023-12-14T05:45:05;100424.34;;;18.87;55.90
83248;BME280;73465;51.038;7.052;2023-12-14T05:47:31;100417.19;;;19.08;55.48
83248;BME280;73465;51.038;7.052;2023-12-14T05:49:58;100437.44;;;19.11;55.58
83248;BME280;73465;51.038;7.052;2023-12-14T05:52:24;100444.28;;;19.04;56.02
83248;BME280;73465;51.038;7.052;2023-12-14T05:54:49;100445.53;;;19.00;55.88
83248;BME280;73465;51.038;7.052;2023-12-14T05:57:14;100445.75;;;18.97;55.94
83248;BME280;73465;51.038;7.052;2023-12-14T05:59:40;100450.41;;;18.95;55.61
83248;BME280;73465;51.038;7.052;2023-12-14T06:02:05;100434.56;;;18.82;55.88
83248;BME280;73465;51.038;7.052;2023-12-14T06:04:32;100452.50;;;18.91;55.77
83248;BME280;73465;51.038;7.052;2023-12-14T06:06:57;100465.06;;;18.89;55.82
83248;BME280;73465;51.038;7.052;2023-12-14T06:09:22;100464.25;;;18.88;55.99
83248;BME280;73465;51.038;7.052;2023-12-14T06:11:51;100454.88;;;17.40;52.92
83248;BME280;73465;51.038;7.052;2023-12-14T06:14:17;100473.06;;;12.90;60.72
83248;BME280;73465;51.038;7.052;2023-12-14T06:16:43;100455.16;;;12.18;61.66
83248;BME280;73465;51.038;7.052;2023-12-14T06:19:08;100492.97;;;12.02;62.66
83248;BME280;73465;51.038;7.052;2023-12-14T06:21:33;100492.13;;;12.02;62.35
83248;BME280;73465;51.038;7.052;2023-12-14T06:23:59;100497.59;;;13.22;60.00
83248;BME280;73465;51.038;7.052;2023-12-14T06:26:25;100485.94;;;15.71;54.90
83248;BME280;73465;51.038;7.052;2023-12-14T06:28:50;100515.63;;;17.35;52.44
83248;BME280;73465;51.038;7.052;2023-12-14T06:31:17;100515.78;;;18.01;51.11
83248;BME280;73465;51.038;7.052;2023-12-14T06:33:43;100497.69;;;18.27;50.76
83248;BME280;73465;51.038;7.052;2023-12-14T06:36:08;100531.75;;;18.68;50.48
83248;BME280;73465;51.038;7.052;2023-12-14T06:38:34;100533.25;;;18.82;50.51
83248;BME280;73465;51.038;7.052;2023-12-14T06:41:00;100543.97;;;19.03;50.66
83248;BME280;73465;51.038;7.052;2023-12-14T06:43:27;100550.47;;;19.21;50.49
83248;BME280;73465;51.038;7.052;2023-12-14T06:45:52;100553.50;;;19.38;50.13
83248;BME280;73465;51.038;7.052;2023-12-14T06:48:17;100561.19;;;19.52;50.39
83248;BME280;73465;51.038;7.052;2023-12-14T06:50:43;100565.13;;;19.58;50.52
83248;BME280;73465;51.038;7.052;2023-12-14T06:53:08;100555.31;;;19.59;50.47
83248;BME280;73465;51.038;7.052;2023-12-14T06:55:33;100573.97;;;19.80;50.35
83248;BME280;73465;51.038;7.052;2023-12-14T06:57:59;100577.88;;;19.97;50.21
83248;BME280;73465;51.038;7.052;2023-12-14T07:00:24;100585.78;;;20.08;50.18
83248;BME280;73465;51.038;7.052;2023-12-14T07:02:50;100555.53;;;19.98;50.17
83248;BME280;73465;51.038;7.052;2023-12-14T07:05:15;100593.44;;;20.23;50.65
83248;BME280;73465;51.038;7.052;2023-12-14T07:07:41;100609.38;;;20.34;50.51
83248;BME280;73465;51.038;7.052;2023-12-14T07:10:06;100607.72;;;20.43;50.31
83248;BME280;73465;51.038;7.052;2023-12-14T07:12:32;100616.03;;;20.49;50.42
83248;BME280;73465;51.038;7.052;2023-12-14T07:14:57;100606.19;;;20.50;50.27
83248;BME280;73465;51.038;7.052;2023-12-14T07:17:23;100618.19;;;20.65;50.49
83248;BME280;73465;51.038;7.052;2023-12-14T07:22:15;100631.91;;;20.82;50.30
83248;BME280;73465;51.038;7.052;2023-12-14T07:24:40;100643.31;;;20.84;50.35
83248;BME280;73465;51.038;7.052;2023-12-14T07:27:05;100639.81;;;20.93;50.41
83248;BME280;73465;51.038;7.052;2023-12-14T07:29:30;100644.72;;;20.98;50.48
83248;BME280;73465;51.038;7.052;2023-12-14T07:31:56;100649.09;;;20.99;50.47
83248;BME280;73465;51.038;7.052;2023-12-14T07:34:21;100636.59;;;20.99;50.24
83248;BME280;73465;51.038;7.052;2023-12-14T07:36:46;100613.63;;;20.87;50.42
83248;BME280;73465;51.038;7.052;2023-12-14T07:39:12;100655.03;;;21.12;50.65
83248;BME280;73465;51.038;7.052;2023-12-14T07:41:37;100628.25;;;20.93;50.35
83248;BME280;73465;51.038;7.052;2023-12-14T07:44:03;100649.09;;;20.99;50.60
83248;BME280;73465;51.038;7.052;2023-12-14T07:46:29;100677.88;;;21.07;50.70
83248;BME280;73465;51.038;7.052;2023-12-14T07:48:55;100686.03;;;21.05;50.56
83248;BME280;73465;51.038;7.052;2023-12-14T07:51:20;100690.69;;;21.03;50.81
83248;BME280;73465;51.038;7.052;2023-12-14T07:53:45;100686.31;;;21.02;50.82
83248;BME280;73465;51.038;7.052;2023-12-14T07:56:12;100675.88;;;20.99;50.95
83248;BME280;73465;51.038;7.052;2023-12-14T07:58:37;100694.94;;;21.06;50.89
83248;BME280;73465;51.038;7.052;2023-12-14T08:01:02;100703.53;;;21.09;51.04
83248;BME280;73465;51.038;7.052;2023-12-14T08:03:28;100715.06;;;21.10;51.30
83248;BME280;73465;51.038;7.052;2023-12-14T08:05:53;100712.13;;;21.13;51.07
83248;BME280;73465;51.038;7.052;2023-12-14T08:08:18;100715.63;;;21.13;50.91
83248;BME280;73465;51.038;7.052;2023-12-14T08:10:44;100722.69;;;21.14;50.71
83248;BME280;73465;51.038;7.052;2023-12-14T08:13:09;100720.16;;;21.13;50.78
83248;BME280;73465;51.038;7.052;2023-12-14T08:15:34;100731.72;;;21.23;50.68
83248;BME280;73465;51.038;7.052;2023-12-14T08:17:59;100746.53;;;21.27;50.96
83248;BME280;73465;51.038;7.052;2023-12-14T08:20:25;100748.63;;;21.33;51.04
83248;BME280;73465;51.038;7.052;2023-12-14T08:22:50;100743.72;;;21.39;50.56
83248;BME280;73465;51.038;7.052;2023-12-14T08:25:15;100752.03;;;21.45;50.67
83248;BME280;73465;51.038;7.052;2023-12-14T08:27:42;100757.72;;;21.52;50.59
83248;BME280;73465;51.038;7.052;2023-12-14T08:30:07;100736.28;;;21.42;50.57
83248;BME280;73465;51.038;7.052;2023-12-14T08:32:33;100771.69;;;21.66;50.63
83248;BME280;73465;51.038;7.052;2023-12-14T08:34:59;100771.13;;;21.62;50.51
83248;BME280;73465;51.038;7.052;2023-12-14T08:37:24;100774.66;;;21.62;50.38
83248;BME280;73465;51.038;7.052;2023-12-14T08:39:49;100776.16;;;21.55;50.38
83248;BME280;73465;51.038;7.052;2023-12-14T08:42:15;100783.06;;;21.48;50.79
83248;BME280;73465;51.038;7.052;2023-12-14T08:44:40;100759.06;;;21.27;50.64
83248;BME280;73465;51.038;7.052;2023-12-14T08:47:06;100792.78;;;21.39;50.74
83248;BME280;73465;51.038;7.052;2023-12-14T08:49:34;100800.53;;;21.32;50.95
83248;BME280;73465;51.038;7.052;2023-12-14T08:51:59;100780.19;;;21.10;50.93
83248;BME280;73465;51.038;7.052;2023-12-14T08:54:24;100797.38;;;21.17;50.82
83248;BME280;73465;51.038;7.052;2023-12-14T08:56:50;100805.97;;;21.11;50.95
83248;BME280;73465;51.038;7.052;2023-12-14T08:59:15;100824.44;;;21.14;50.97
83248;BME280;73465;51.038;7.052;2023-12-14T09:01:40;100814.84;;;21.02;50.97
83248;BME280;73465;51.038;7.052;2023-12-14T09:04:05;100830.91;;;21.02;51.17
83248;BME280;73465;51.038;7.052;2023-12-14T09:06:31;100835.81;;;20.97;50.96
83248;BME280;73465;51.038;7.052;2023-12-14T09:08:56;100837.03;;;20.93;51.66
83248;BME280;73465;51.038;7.052;2023-12-14T09:11:21;100851.94;;;20.86;51.18
83248;BME280;73465;51.038;7.052;2023-12-14T09:13:47;100855.88;;;20.81;51.48
83248;BME280;73465;51.038;7.052;2023-12-14T09:16:12;100860.41;;;16.10;54.85
83248;BME280;73465;51.038;7.052;2023-12-14T09:18:38;100857.13;;;18.56;52.83
83248;BME280;73465;51.038;7.052;2023-12-14T09:21:03;100843.53;;;19.62;50.67
83248;BME280;73465;51.038;7.052;2023-12-14T09:23:30;100837.59;;;20.02;50.12
83248;BME280;73465;51.038;7.052;2023-12-14T09:25:55;100874.78;;;20.47;49.50
83248;BME280;73465;51.038;7.052;2023-12-14T09:28:21;100874.91;;;20.67;49.67
83248;BME280;73465;51.038;7.052;2023-12-14T09:30:47;100858.41;;;20.62;49.27
83248;BME280;73465;51.038;7.052;2023-12-14T09:33:12;100893.09;;;20.84;49.58
83248;BME280;73465;51.038;7.052;2023-12-14T09:35:37;100896.91;;;20.92;49.47
83248;BME280;73465;51.038;7.052;2023-12-14T09:38:04;100902.84;;;20.95;49.61
83248;BME280;73465;51.038;7.052;2023-12-14T09:40:29;100906.13;;;20.99;49.74
83248;BME280;73465;51.038;7.052;2023-12-14T09:42:55;100899.53;;;21.03;49.75
83248;BME280;73465;51.038;7.052;2023-12-14T09:45:24;100908.44;;;21.13;49.71
83248;BME280;73465;51.038;7.052;2023-12-14T09:47:52;100900.56;;;21.12;49.56
83248;BME280;73465;51.038;7.052;2023-12-14T09:50:19;100911.03;;;21.25;49.72
83248;BME280;73465;51.038;7.052;2023-12-14T09:52:45;100914.16;;;21.30;49.58
83248;BME280;73465;51.038;7.052;2023-12-14T09:55:12;100914.72;;;21.33;49.77
83248;BME280;73465;51.038;7.052;2023-12-14T09:57:38;100926.47;;;21.42;49.75
83248;BME280;73465;51.038;7.052;2023-12-14T10:00:04;100926.34;;;21.44;49.77
83248;BME280;73465;51.038;7.052;2023-12-14T10:02:32;100921.38;;;21.39;49.66
83248;BME280;73465;51.038;7.052;2023-12-14T10:04:58;100935.78;;;21.48;49.91
83248;BME280;73465;51.038;7.052;2023-12-14T10:07:23;100937.47;;;21.49;49.81
83248;BME280;73465;51.038;7.052;2023-12-14T10:09:48;100934.09;;;21.47;49.92
83248;BME280;73465;51.038;7.052;2023-12-14T10:12:15;100946.38;;;21.50;49.88
83248;BME280;73465;51.038;7.052;2023-12-14T10:14:40;100945.53;;;21.49;50.03
83248;BME280;73465;51.038;7.052;2023-12-14T10:17:16;100954.53;;;21.48;49.96
83248;BME280;73465;51.038;7.052;2023-12-14T10:19:43;100932.06;;;21.29;49.93
83248;BME280;73465;51.038;7.052;2023-12-14T10:22:09;100950.59;;;21.42;50.08
83248;BME280;73465;51.038;7.052;2023-12-14T10:24:35;100934.72;;;21.29;50.20
83248;BME280;73465;51.038;7.052;2023-12-14T10:27:05;100936.09;;;21.24;50.28
83248;BME280;73465;51.038;7.052;2023-12-14T10:29:33;100966.34;;;21.36;50.37
83248;BME280;73465;51.038;7.052;2023-12-14T10:31:59;100958.00;;;21.29;50.32
83248;BME280;73465;51.038;7.052;2023-12-14T10:34:24;100977.59;;;21.29;50.38
83248;BME280;73465;51.038;7.052;2023-12-14T10:36:51;100984.91;;;21.27;50.43
83248;BME280;73465;51.038;7.052;2023-12-14T10:39:17;100987.34;;;21.09;50.71
83248;BME280;73465;51.038;7.052;2023-12-14T10:41:47;100993.16;;;21.14;50.60
83248;BME280;73465;51.038;7.052;2023-12-14T10:44:14;100997.78;;;21.12;50.67
83248;BME280;73465;51.038;7.052;2023-12-14T10:46:40;101004.13;;;21.11;50.56
83248;BME280;73465;51.038;7.052;2023-12-14T10:49:06;100990.56;;;21.03;50.55
83248;BME280;73465;51.038;7.052;2023-12-14T10:51:32;101011.91;;;21.14;50.53
83248;BME280;73465;51.038;7.052;2023-12-14T10:53:58;101014.59;;;21.14;50.53
83248;BME280;73465;51.038;7.052;2023-12-14T10:56:23;101023.19;;;21.18;50.67
83248;BME280;73465;51.038;7.052;2023-12-14T10:58:52;101025.50;;;21.23;50.68
83248;BME280;73465;51.038;7.052;2023-12-14T11:01:20;101030.56;;;21.26;50.67
83248;BME280;73465;51.038;7.052;2023-12-14T11:03:46;101026.78;;;21.28;50.76
83248;BME280;73465;51.038;7.052;2023-12-14T11:06:33;101023.47;;;21.36;50.61
83248;BME280;73465;51.038;7.052;2023-12-14T11:09:05;101026.31;;;21.23;50.91
83248;BME280;73465;51.038;7.052;2023-12-14T11:14:10;101031.97;;;21.20;49.81
83248;BME280;73465;51.038;7.052;2023-12-14T11:16:37;101028.34;;;14.51;54.23
83248;BME280;73465;51.038;7.052;2023-12-14T11:22:08;101037.72;;;19.03;48.86
83248;BME280;73465;51.038;7.052;2023-12-14T11:24:37;101042.44;;;20.03;47.39
83248;BME280;73465;51.038;7.052;2023-12-14T11:27:08;101034.97;;;20.29;47.16
83248;BME280;73465;51.038;7.052;2023-12-14T11:29:37;101053.75;;;20.62;46.60
83248;BME280;73465;51.038;7.052;2023-12-14T11:32:02;101049.09;;;20.75;46.74
83248;BME280;73465;51.038;7.052;2023-12-14T11:34:28;101059.50;;;20.90;46.98
83248;BME280;73465;51.038;7.052;2023-12-14T11:36:57;101036.59;;;20.97;47.06
83248;BME280;73465;51.038;7.052;2023-12-14T11:39:23;101032.09;;;20.97;46.85
83248;BME280;73465;51.038;7.052;2023-12-14T11:42:05;101064.66;;;21.24;46.85
83248;BME280;73465;51.038;7.052;2023-12-14T11:44:33;101065.97;;;21.29;47.11
83248;BME280;73465;51.038;7.052;2023-12-14T11:46:58;101069.69;;;21.38;46.89
83248;BME280;73465;51.038;7.052;2023-12-14T11:49:25;101066.75;;;21.41;46.75
83248;BME280;73465;51.038;7.052;2023-12-14T11:51:56;101076.38;;;21.44;47.16
83248;BME280;73465;51.038;7.052;2023-12-14T11:54:22;101081.72;;;21.44;47.49
83248;BME280;73465;51.038;7.052;2023-12-14T11:56:50;101086.09;;;21.45;47.23
83248;BME280;73465;51.038;7.052;2023-12-14T11:59:18;101086.22;;;21.43;47.45
83248;BME280;73465;51.038;7.052;2023-12-14T12:02:22;101092.09;;;21.37;47.61
83248;BME280;73465;51.038;7.052;2023-12-14T12:04:50;101073.28;;;21.27;47.81
83248;BME280;73465;51.038;7.052;2023-12-14T12:07:17;101088.97;;;21.32;47.85
83248;BME280;73465;51.038;7.052;2023-12-14T12:09:42;101092.91;;;21.28;48.06
83248;BME280;73465;51.038;7.052;2023-12-14T12:12:09;101092.31;;;21.24;48.02
83248;BME280;73465;51.038;7.052;2023-12-14T12:14:35;101095.38;;;21.20;48.08
83248;BME280;73465;51.038;7.052;2023-12-14T12:17:01;101086.53;;;21.08;48.15
83248;BME280;73465;51.038;7.052;2023-12-14T12:19:26;101070.28;;;20.99;48.26
83248;BME280;73465;51.038;7.052;2023-12-14T12:21:52;101088.16;;;20.99;49.28
83248;BME280;73465;51.038;7.052;2023-12-14T12:24:17;101077.22;;;21.02;49.11
83248;BME280;73465;51.038;7.052;2023-12-14T12:26:42;101089.34;;;21.06;49.03
83248;BME280;73465;51.038;7.052;2023-12-14T12:29:08;101080.78;;;20.91;48.93
83248;BME280;73465;51.038;7.052;2023-12-14T12:31:33;101087.47;;;20.97;48.99
83248;BME280;73465;51.038;7.052;2023-12-14T12:33:59;101089.78;;;20.90;49.03
83248;BME280;73465;51.038;7.052;2023-12-14T12:36:24;101092.75;;;20.87;49.14
83248;BME280;73465;51.038;7.052;2023-12-14T12:38:50;101080.94;;;20.78;49.17
83248;BME280;73465;51.038;7.052;2023-12-14T12:41:16;101097.22;;;20.87;49.18
83248;BME280;73465;51.038;7.052;2023-12-14T12:43:41;101099.91;;;20.87;49.52
83248;BME280;73465;51.038;7.052;2023-12-14T12:46:07;101097.09;;;20.88;49.00
83248;BME280;73465;51.038;7.052;2023-12-14T12:48:32;101097.59;;;20.93;48.91
83248;BME280;73465;51.038;7.052;2023-12-14T12:50:58;101101.75;;;21.07;48.56